Terminal Aerodrome Forecast
Issued by NWS

Home | Current Version | Previous Version | Text Only | Print | Product List | Glossary On
Versions: 1 2 3 4 5 6 7 8 9 10 11 12 13 14 15
000
FTUS45 KLKN 281720
TAFWMC
TAF
KWMC 281720Z 2818/2918 34015G25KT P6SM VCSH FEW035 BKN050
     FM290100 35006KT P6SM SCT100
     FM291700 33005KT P6SM SCT250=

USA.gov is the U.S. government's official web portal to all federal, state and local government web resources and services.